createdAt,value
2023-01-17T00:02:17.948Z,97573.31
2023-01-17T00:05:03.322Z,97569.84
2023-01-17T00:07:49.337Z,97550.06
2023-01-17T00:10:19.063Z,97568.28
2023-01-17T00:12:54.216Z,97540.28
2023-01-17T00:15:23.545Z,97550.97
2023-01-17T00:17:50.943Z,97566.00
2023-01-17T00:20:55.971Z,97573.50
2023-01-17T00:24:00.976Z,97595.69
2023-01-17T00:26:28.048Z,97560.41
2023-01-17T00:28:54.926Z,97588.34
2023-01-17T00:31:22.305Z,97501.75
2023-01-17T00:33:49.361Z,97566.06
2023-01-17T00:36:16.159Z,97619.38
2023-01-17T00:38:43.285Z,97583.06
2023-01-17T00:41:13.185Z,97570.03
2023-01-17T00:43:59.132Z,97596.34
2023-01-17T00:46:44.784Z,97606.66
2023-01-17T00:49:30.314Z,97619.03
2023-01-17T00:52:15.701Z,97626.53
2023-01-17T00:55:01.291Z,97621.94
2023-01-17T00:57:46.797Z,97621.91
2023-01-17T01:00:32.493Z,97626.53
2023-01-17T01:03:18.404Z,97623.41
2023-01-17T01:06:03.855Z,97624.38
2023-01-17T01:08:49.428Z,97636.19
2023-01-17T01:11:39.035Z,97611.75
2023-01-17T01:14:27.063Z,97661.25
2023-01-17T01:17:12.905Z,97614.38
2023-01-17T01:19:58.305Z,97655.72
2023-01-17T01:22:43.903Z,97611.16
2023-01-17T01:25:29.338Z,97663.72
2023-01-17T01:28:31.740Z,97660.44
2023-01-17T01:31:23.888Z,97652.75
2023-01-17T01:33:52.324Z,97671.31
2023-01-17T01:36:19.436Z,97608.75
2023-01-17T01:38:46.591Z,97677.94
2023-01-17T01:41:13.568Z,97652.09
2023-01-17T01:43:54.954Z,97676.09
2023-01-17T01:46:31.576Z,97573.66
2023-01-17T01:49:06.002Z,97655.13
2023-01-17T01:51:40.141Z,97669.09
2023-01-17T01:54:20.898Z,97604.03
2023-01-17T01:56:49.958Z,97638.53
2023-01-17T01:59:20.280Z,97681.63
2023-01-17T02:01:50.419Z,97656.03
2023-01-17T02:04:19.041Z,97656.03
2023-01-17T02:06:54.294Z,97665.19
2023-01-17T02:09:21.832Z,97666.69
2023-01-17T02:11:49.904Z,97662.19
2023-01-17T02:14:18.800Z,97673.69
2023-01-17T02:16:55.042Z,97674.13
2023-01-17T02:20:00.282Z,97677.56
2023-01-17T02:22:33.094Z,97677.50
2023-01-17T02:25:36.923Z,97681.72
2023-01-17T02:28:27.837Z,97680.81
2023-01-17T02:31:02.523Z,97686.81
2023-01-17T02:33:38.472Z,97691.03
2023-01-17T02:36:21.311Z,97690.59
2023-01-17T02:38:50.647Z,97684.06
2023-01-17T02:41:27.721Z,97680.78
2023-01-17T02:43:54.647Z,97624.41
2023-01-17T02:46:21.554Z,97658.22
2023-01-17T02:48:49.513Z,97646.41
2023-01-17T02:51:27.891Z,97665.28
2023-01-17T02:54:42.432Z,97629.63
2023-01-17T02:57:16.226Z,97702.41
2023-01-17T03:00:01.881Z,97700.13
2023-01-17T03:02:34.012Z,97679.75
2023-01-17T03:05:27.808Z,97682.91
2023-01-17T03:07:56.189Z,97673.06
2023-01-17T03:10:24.247Z,97621.94
2023-01-17T03:12:56.571Z,97668.44
2023-01-17T03:15:23.494Z,97660.25
2023-01-17T03:17:55.092Z,97677.91
2023-01-17T03:20:22.823Z,97688.41
2023-01-17T03:22:49.869Z,97621.19
2023-01-17T03:25:17.035Z,97691.09
2023-01-17T03:27:44.081Z,97636.34
2023-01-17T03:30:11.677Z,97636.78
2023-01-17T03:32:38.796Z,97665.66
2023-01-17T03:35:06.597Z,97697.28
2023-01-17T03:37:33.593Z,97660.72
2023-01-17T03:40:00.659Z,97603.56
2023-01-17T03:42:27.719Z,97668.44
2023-01-17T03:44:54.822Z,97621.25
2023-01-17T03:47:22.198Z,97672.94
2023-01-17T03:49:49.199Z,97662.53
2023-01-17T03:52:16.331Z,97650.06
2023-01-17T03:54:43.501Z,97674.66
2023-01-17T03:57:10.287Z,97640.38
2023-01-17T03:59:37.308Z,97674.03
2023-01-17T04:02:04.368Z,97718.97
2023-01-17T04:04:31.362Z,97693.66
2023-01-17T04:06:58.159Z,97712.06
2023-01-17T04:09:25.115Z,97686.44
2023-01-17T04:11:53.499Z,97705.53
2023-01-17T04:14:20.332Z,97709.41
2023-01-17T04:16:47.417Z,97684.91
2023-01-17T04:19:14.475Z,97671.19
2023-01-17T04:21:41.471Z,97680.69
2023-01-17T04:24:08.568Z,97675.69
2023-01-17T04:26:35.879Z,97677.44
2023-01-17T04:29:03.349Z,97712.66
2023-01-17T04:31:30.657Z,97716.78
2023-01-17T04:33:57.532Z,97677.75
2023-01-17T04:36:24.521Z,97693.00
2023-01-17T04:38:51.405Z,97705.44
2023-01-17T04:41:18.358Z,97679.69
2023-01-17T04:43:45.178Z,97675.50
2023-01-17T04:46:12.769Z,97667.06
2023-01-17T04:48:39.669Z,97697.78
2023-01-17T04:51:06.917Z,97661.09
2023-01-17T04:53:33.997Z,97594.34
2023-01-17T04:56:00.857Z,97652.66
2023-01-17T04:58:28.029Z,97680.00
2023-01-17T05:00:55.141Z,97681.91
2023-01-17T05:03:23.275Z,97697.66
2023-01-17T05:05:50.490Z,97662.44
2023-01-17T05:08:17.722Z,97666.34
2023-01-17T05:10:47.268Z,97656.34
2023-01-17T05:13:15.096Z,97667.00
2023-01-17T05:15:42.182Z,97658.88
2023-01-17T05:18:13.452Z,97674.91
2023-01-17T05:20:40.458Z,97690.69
2023-01-17T05:23:07.719Z,97706.50
2023-01-17T05:25:36.258Z,97678.19
2023-01-17T05:28:03.785Z,97677.38
2023-01-17T05:30:32.664Z,97711.25
2023-01-17T05:32:59.934Z,97703.16
2023-01-17T05:35:29.423Z,97710.56
2023-01-17T05:37:56.727Z,97666.88
2023-01-17T05:40:26.789Z,97671.00
2023-01-17T05:42:56.111Z,97688.41
2023-01-17T05:45:25.454Z,97699.16
2023-01-17T05:47:54.555Z,97713.69
2023-01-17T05:50:30.689Z,97691.81
2023-01-17T05:53:00.397Z,97705.63
2023-01-17T05:55:28.907Z,97649.31
2023-01-17T05:57:56.407Z,97701.41
2023-01-17T06:00:24.619Z,97673.25
2023-01-17T06:02:54.472Z,97645.09
2023-01-17T06:05:22.258Z,97656.66
2023-01-17T06:07:49.291Z,97635.78
2023-01-17T06:10:18.041Z,97710.25
2023-01-17T06:12:46.388Z,97717.94
2023-01-17T06:15:15.205Z,97655.31
2023-01-17T06:17:42.382Z,97683.22
2023-01-17T06:20:11.185Z,97681.94
2023-01-17T06:22:38.268Z,97672.94
2023-01-17T06:25:05.751Z,97704.19
2023-01-17T06:27:32.792Z,97668.44
2023-01-17T06:29:59.815Z,97601.00
2023-01-17T06:32:27.311Z,97705.09
2023-01-17T06:34:54.196Z,97666.34
2023-01-17T06:37:21.185Z,97687.75
2023-01-17T06:39:48.269Z,97688.34
2023-01-17T06:42:15.397Z,97664.09
2023-01-17T06:44:42.363Z,97699.75
2023-01-17T06:47:09.258Z,97674.75
2023-01-17T06:49:36.062Z,97647.09
2023-01-17T06:52:03.008Z,97687.22
2023-01-17T06:54:29.874Z,97673.25
2023-01-17T06:56:56.761Z,97668.16
2023-01-17T06:59:23.793Z,97647.56
2023-01-17T07:01:50.743Z,97665.81
2023-01-17T07:04:17.628Z,97686.94
2023-01-17T07:06:44.732Z,97685.13
2023-01-17T07:09:11.652Z,97663.09
2023-01-17T07:11:38.600Z,97672.44
2023-01-17T07:14:05.884Z,97691.56
2023-01-17T07:16:34.260Z,97690.59
2023-01-17T07:19:01.536Z,97685.63
2023-01-17T07:21:28.413Z,97648.31
2023-01-17T07:23:55.834Z,97641.31
2023-01-17T07:26:22.692Z,97642.59
2023-01-17T07:28:49.601Z,97625.13
2023-01-17T07:31:16.623Z,97645.06
2023-01-17T07:33:43.672Z,97641.22
2023-01-17T07:36:11.080Z,97664.28
2023-01-17T07:38:38.311Z,97626.22
2023-01-17T07:41:05.395Z,97616.84
2023-01-17T07:43:32.452Z,97620.81
2023-01-17T07:46:01.932Z,97653.44
2023-01-17T07:48:30.865Z,97653.44
2023-01-17T07:50:58.631Z,97635.78
2023-01-17T07:53:27.287Z,97635.16
2023-01-17T07:55:54.966Z,97626.56
2023-01-17T07:58:22.611Z,97569.94
2023-01-17T08:00:50.014Z,97630.00
2023-01-17T08:03:18.445Z,97568.44
2023-01-17T08:05:55.551Z,97621.66
2023-01-17T08:08:22.654Z,97645.41
2023-01-17T08:10:51.602Z,97604.06
2023-01-17T08:13:18.464Z,97600.47
2023-01-17T08:15:51.146Z,97630.97
2023-01-17T08:18:18.603Z,97633.63
2023-01-17T08:20:46.096Z,97590.91
2023-01-17T08:23:13.213Z,97611.31
2023-01-17T08:25:40.613Z,97592.91
2023-01-17T08:28:07.642Z,97626.75
2023-01-17T08:30:35.526Z,97582.50
2023-01-17T08:33:02.556Z,97624.09
2023-01-17T08:35:29.821Z,97629.81
2023-01-17T08:37:57.912Z,97601.81
2023-01-17T08:40:25.042Z,97608.09
2023-01-17T08:42:57.026Z,97552.56
2023-01-17T08:45:24.388Z,97579.84
2023-01-17T08:47:52.295Z,97638.63
2023-01-17T08:50:22.884Z,97640.78
2023-01-17T08:52:51.144Z,97622.03
2023-01-17T08:55:18.134Z,97641.84
2023-01-17T08:57:45.088Z,97565.09
2023-01-17T09:00:12.337Z,97591.91
2023-01-17T09:02:39.149Z,97615.03
2023-01-17T09:05:06.909Z,97661.66
2023-01-17T09:07:34.053Z,97643.41
2023-01-17T09:10:00.954Z,97645.00
2023-01-17T09:12:31.569Z,97621.72
2023-01-17T09:14:58.671Z,97640.97
2023-01-17T09:17:25.611Z,97643.91
2023-01-17T09:19:52.515Z,97650.53
2023-01-17T09:22:19.389Z,97593.97
2023-01-17T09:24:46.360Z,97594.78
2023-01-17T09:27:13.258Z,97609.78
2023-01-17T09:29:40.153Z,97611.44
2023-01-17T09:32:07.019Z,97634.72
2023-01-17T09:34:33.900Z,97616.00
2023-01-17T09:37:01.052Z,97621.91
2023-01-17T09:39:27.981Z,97612.16
2023-01-17T09:42:20.896Z,97615.72
2023-01-17T09:44:52.186Z,97648.88
2023-01-17T09:47:34.426Z,97620.66
2023-01-17T09:50:08.733Z,97659.16
2023-01-17T09:52:35.765Z,97633.59
2023-01-17T09:55:07.898Z,97643.56
2023-01-17T09:57:56.728Z,97655.72
2023-01-17T10:01:04.856Z,97671.66
2023-01-17T10:04:04.233Z,97666.41
2023-01-17T10:06:52.044Z,97667.59
2023-01-17T10:10:06.556Z,97659.72
2023-01-17T10:12:51.700Z,97660.84
2023-01-17T10:15:30.850Z,97655.63
2023-01-17T10:18:00.934Z,97647.41
2023-01-17T10:20:36.599Z,97648.66
2023-01-17T10:23:31.294Z,97652.16
2023-01-17T10:26:03.130Z,97653.56
2023-01-17T10:28:51.305Z,97640.88
2023-01-17T10:31:24.507Z,97626.25
2023-01-17T10:34:12.628Z,97635.13
2023-01-17T10:36:45.057Z,97637.59
2023-01-17T10:39:31.529Z,97603.91
2023-01-17T10:42:06.928Z,97633.56
2023-01-17T10:44:43.578Z,97623.84
2023-01-17T10:47:10.595Z,97632.78
2023-01-17T10:49:42.812Z,97627.31
2023-01-17T10:52:52.971Z,97626.97
2023-01-17T10:55:34.866Z,97625.84
2023-01-17T10:58:03.768Z,97604.75
2023-01-17T11:00:49.154Z,97614.13
2023-01-17T11:03:21.119Z,97599.78
2023-01-17T11:06:16.340Z,97605.50
2023-01-17T11:08:54.875Z,97603.81
2023-01-17T11:11:25.279Z,97599.94
2023-01-17T11:13:55.157Z,97570.63
2023-01-17T11:16:27.511Z,97582.97
2023-01-17T11:19:18.916Z,97585.66
2023-01-17T11:22:01.889Z,97577.59
2023-01-17T11:24:49.213Z,97573.63
2023-01-17T11:27:27.970Z,97577.66
2023-01-17T11:30:16.159Z,97566.09
2023-01-17T11:33:12.396Z,97519.00
2023-01-17T11:35:45.275Z,97549.06
2023-01-17T11:38:18.625Z,97557.06
2023-01-17T11:40:49.849Z,97554.97
2023-01-17T11:43:27.738Z,97550.94
2023-01-17T11:46:18.957Z,97538.41
2023-01-17T11:48:56.368Z,97498.91
2023-01-17T11:51:42.565Z,97533.28
2023-01-17T11:54:21.957Z,97535.31
2023-01-17T11:56:51.022Z,97483.63
2023-01-17T11:59:32.040Z,97520.59
2023-01-17T12:02:12.096Z,97518.00
2023-01-17T12:04:45.692Z,97519.53
2023-01-17T12:07:47.675Z,97515.31
2023-01-17T12:10:21.817Z,97510.28
2023-01-17T12:13:29.613Z,97496.50
2023-01-17T12:16:31.771Z,97496.41
2023-01-17T12:19:17.315Z,97502.91
2023-01-17T12:21:57.337Z,97493.59
2023-01-17T12:24:36.988Z,97496.50
2023-01-17T12:27:17.001Z,97459.19
2023-01-17T12:29:58.902Z,97454.94
2023-01-17T12:32:55.089Z,97474.59
2023-01-17T12:35:48.649Z,97468.03
2023-01-17T12:38:32.062Z,97468.44
2023-01-17T12:41:13.184Z,97479.13
2023-01-17T12:43:41.957Z,97410.31
2023-01-17T12:46:21.493Z,97472.34
2023-01-17T12:48:57.237Z,97434.94
2023-01-17T12:51:41.630Z,97434.94
2023-01-17T12:54:29.034Z,97455.59
2023-01-17T12:57:06.790Z,97333.25
2023-01-17T12:59:42.587Z,97419.44
2023-01-17T13:02:34.180Z,97417.13
2023-01-17T13:05:29.048Z,97376.75
2023-01-17T13:08:04.960Z,97403.19
2023-01-17T13:10:59.507Z,97318.31
2023-01-17T13:13:31.474Z,97385.34
2023-01-17T13:16:13.159Z,97411.75
2023-01-17T13:18:51.806Z,97349.00
2023-01-17T13:21:33.394Z,97389.13
2023-01-17T13:24:02.347Z,97358.78
2023-01-17T13:27:06.849Z,97391.94
2023-01-17T13:29:52.576Z,97274.63
2023-01-17T13:32:59.454Z,97388.03
2023-01-17T13:35:43.855Z,97324.41
2023-01-17T13:38:21.340Z,97391.22
2023-01-17T13:40:55.006Z,97284.16
2023-01-17T13:43:30.722Z,97392.28
2023-01-17T13:46:05.479Z,97390.72
2023-01-17T13:48:37.609Z,97289.31
2023-01-17T13:51:06.315Z,97322.75
2023-01-17T13:53:37.077Z,97364.88
2023-01-17T13:56:33.790Z,97248.06
2023-01-17T14:03:10.524Z,97410.50
2023-01-17T14:05:40.359Z,97412.66
2023-01-17T14:08:19.492Z,97347.75
2023-01-17T14:10:53.758Z,97274.84
2023-01-17T14:13:39.494Z,97407.69
2023-01-17T14:16:21.760Z,97420.00
2023-01-17T14:18:49.507Z,97407.47
2023-01-17T14:21:23.557Z,97270.25
2023-01-17T14:23:57.815Z,97305.75
2023-01-17T14:26:32.095Z,97406.78
2023-01-17T14:29:20.179Z,97429.13
2023-01-17T14:31:50.856Z,97427.88
2023-01-17T14:34:25.153Z,97403.84
2023-01-17T14:36:52.537Z,97411.56
2023-01-17T14:39:22.885Z,97416.09
2023-01-17T14:41:49.923Z,97363.63
2023-01-17T14:44:17.409Z,97414.53
2023-01-17T14:46:48.683Z,97324.84
2023-01-17T14:49:24.252Z,97310.72
2023-01-17T14:52:07.146Z,97427.94
2023-01-17T14:54:34.408Z,97372.84
2023-01-17T14:57:20.224Z,97434.47
2023-01-17T14:59:47.210Z,97359.59
2023-01-17T15:02:19.851Z,97348.78
2023-01-17T15:04:55.246Z,97426.41
2023-01-17T15:07:24.139Z,97306.97
2023-01-17T15:09:51.584Z,97343.09
2023-01-17T15:12:19.839Z,97419.56
2023-01-17T15:14:46.972Z,97273.03
2023-01-17T15:17:24.833Z,97416.81
2023-01-17T15:19:57.237Z,97361.16
2023-01-17T15:22:26.779Z,97426.34
2023-01-17T15:24:54.781Z,97358.78
2023-01-17T15:27:22.535Z,97374.72
2023-01-17T15:29:50.467Z,97295.03
2023-01-17T15:32:23.496Z,97316.63
2023-01-17T15:34:52.547Z,97418.44
2023-01-17T15:37:37.862Z,97428.00
2023-01-17T15:40:22.844Z,97391.91
2023-01-17T15:42:54.093Z,97316.53
2023-01-17T15:45:27.660Z,97402.41
2023-01-17T15:47:54.888Z,97405.72
2023-01-17T15:50:23.935Z,97413.22
2023-01-17T15:52:55.407Z,97368.88
2023-01-17T15:55:39.547Z,97295.00
2023-01-17T15:58:25.129Z,97411.31
2023-01-17T16:00:52.204Z,97387.69
2023-01-17T16:03:30.550Z,97402.59
2023-01-17T16:06:00.958Z,97334.66
2023-01-17T16:08:40.619Z,97388.03
2023-01-17T16:11:11.837Z,97441.31
2023-01-17T16:13:39.834Z,97346.44
2023-01-17T16:16:35.869Z,97435.41
2023-01-17T16:19:03.222Z,97431.19
2023-01-17T16:21:31.657Z,97373.47
2023-01-17T16:24:00.249Z,97418.47
2023-01-17T16:26:29.296Z,97405.28
2023-01-17T16:28:57.019Z,97372.78
2023-01-17T16:31:24.100Z,97407.97
2023-01-17T16:33:51.401Z,97410.16
2023-01-17T16:36:19.783Z,97435.97
2023-01-17T16:38:49.543Z,97404.94
2023-01-17T16:41:16.556Z,97406.25
2023-01-17T16:43:43.463Z,97422.44
2023-01-17T16:46:12.108Z,97430.38
2023-01-17T16:48:39.054Z,97417.00
2023-01-17T16:51:07.377Z,97420.94
2023-01-17T16:53:35.318Z,97421.19
2023-01-17T16:56:09.777Z,97374.88
2023-01-17T16:58:36.669Z,97291.47
2023-01-17T17:01:17.781Z,97359.72
2023-01-17T17:03:45.266Z,97411.94
2023-01-17T17:06:12.504Z,97376.28
2023-01-17T17:08:39.998Z,97419.19
2023-01-17T17:11:23.191Z,97403.84
2023-01-17T17:13:51.319Z,97414.19
2023-01-17T17:16:29.977Z,97403.81
2023-01-17T17:19:08.066Z,97373.69
2023-01-17T17:21:37.556Z,97415.25
2023-01-17T17:24:04.879Z,97418.47
2023-01-17T17:26:35.487Z,97416.25
2023-01-17T17:29:03.881Z,97423.94
2023-01-17T17:31:31.009Z,97389.75
2023-01-17T17:34:01.998Z,97375.03
2023-01-17T17:36:30.013Z,97429.38
2023-01-17T17:38:58.239Z,97422.56
2023-01-17T17:41:28.522Z,97371.72
2023-01-17T17:43:56.107Z,97447.03
2023-01-17T17:46:27.345Z,97403.22
2023-01-17T17:48:54.225Z,97427.44
2023-01-17T17:51:32.738Z,97435.34
2023-01-17T17:54:02.352Z,97420.84
2023-01-17T17:56:31.158Z,97454.13
2023-01-17T17:58:59.803Z,97465.16
2023-01-17T18:01:27.347Z,97460.13
2023-01-17T18:03:57.107Z,97401.66
2023-01-17T18:06:24.239Z,97445.72
2023-01-17T18:08:52.391Z,97413.09
2023-01-17T18:11:22.763Z,97410.19
2023-01-17T18:13:51.255Z,97472.56
2023-01-17T18:16:27.053Z,97450.72
2023-01-17T18:18:56.376Z,97478.03
2023-01-17T18:21:35.302Z,97458.81
2023-01-17T18:24:07.270Z,97373.88
2023-01-17T18:26:36.593Z,97486.75
2023-01-17T18:29:04.970Z,97470.94
2023-01-17T18:31:32.093Z,97474.72
2023-01-17T18:34:05.216Z,97471.16
2023-01-17T18:36:34.985Z,97435.72
2023-01-17T18:39:05.344Z,97463.66
2023-01-17T18:41:32.689Z,97472.31
2023-01-17T18:44:00.008Z,97488.03
2023-01-17T18:46:27.072Z,97493.63
2023-01-17T18:48:57.350Z,97504.28
2023-01-17T18:51:25.399Z,97493.47
2023-01-17T18:53:55.024Z,97481.69
2023-01-17T18:56:23.530Z,97486.97
2023-01-17T18:58:51.457Z,97443.69
2023-01-17T19:01:20.029Z,97478.16
2023-01-17T19:03:48.751Z,97503.56
2023-01-17T19:06:19.353Z,97502.91
2023-01-17T19:08:46.469Z,97511.63
2023-01-17T19:11:13.320Z,97463.34
2023-01-17T19:13:42.029Z,97519.28
2023-01-17T19:16:13.769Z,97499.22
2023-01-17T19:18:40.859Z,97509.06
2023-01-17T19:21:11.063Z,97510.41
2023-01-17T19:23:38.286Z,97505.81
2023-01-17T19:26:06.756Z,97534.16
2023-01-17T19:28:35.727Z,97526.88
2023-01-17T19:31:11.443Z,97539.44
2023-01-17T19:33:40.643Z,97482.44
2023-01-17T19:36:10.657Z,97531.72
2023-01-17T19:38:37.993Z,97497.28
2023-01-17T19:41:26.858Z,97490.72
2023-01-17T19:43:55.601Z,97498.53
2023-01-17T19:46:26.068Z,97503.22
2023-01-17T19:48:54.854Z,97546.13
2023-01-17T19:51:22.399Z,97540.13
2023-01-17T19:53:49.535Z,97539.06
2023-01-17T19:56:22.231Z,97545.47
2023-01-17T19:58:49.230Z,97479.19
2023-01-17T20:01:25.276Z,97552.88
2023-01-17T20:03:52.575Z,97508.97
2023-01-17T20:06:22.550Z,97500.84
2023-01-17T20:08:50.028Z,97547.22
2023-01-17T20:11:19.840Z,97550.06
2023-01-17T20:13:48.569Z,97421.75
2023-01-17T20:16:17.055Z,97523.06
2023-01-17T20:18:44.383Z,97532.59
2023-01-17T20:21:14.603Z,97553.22
2023-01-17T20:23:43.104Z,97542.28
2023-01-17T20:26:15.304Z,97559.22
2023-01-17T20:28:44.181Z,97560.94
2023-01-17T20:31:16.630Z,97519.91
2023-01-17T20:33:45.482Z,97560.72
2023-01-17T20:36:15.080Z,97549.69
2023-01-17T20:38:45.789Z,97550.72
2023-01-17T20:41:18.703Z,97533.38
2023-01-17T20:43:48.325Z,97545.53
2023-01-17T20:46:18.226Z,97570.25
2023-01-17T20:48:53.179Z,97557.25
2023-01-17T20:51:21.066Z,97515.25
2023-01-17T20:53:52.283Z,97564.03
2023-01-17T20:56:19.887Z,97551.03
2023-01-17T20:58:46.879Z,97534.38
2023-01-17T21:01:20.265Z,97480.00
2023-01-17T21:03:52.158Z,97516.00
2023-01-17T21:06:22.548Z,97567.84
2023-01-17T21:08:51.351Z,97563.56
2023-01-17T21:11:23.601Z,97564.69
2023-01-17T21:13:51.911Z,97544.44
2023-01-17T21:16:21.749Z,97544.81
2023-01-17T21:18:50.772Z,97522.69
2023-01-17T21:21:24.220Z,97527.41
2023-01-17T21:23:53.580Z,97494.69
2023-01-17T21:26:23.080Z,97571.16
2023-01-17T21:28:51.209Z,97563.78
2023-01-17T21:31:24.938Z,97572.94
2023-01-17T21:33:57.223Z,97574.66
2023-01-17T21:36:26.689Z,97560.53
2023-01-17T21:38:57.146Z,97525.97
2023-01-17T21:41:29.417Z,97574.22
2023-01-17T21:44:01.420Z,97575.72
2023-01-17T21:46:29.551Z,97579.91
2023-01-17T21:48:57.965Z,97535.69
2023-01-17T21:51:45.675Z,97523.16
2023-01-17T21:54:12.915Z,97499.38
2023-01-17T21:56:58.673Z,97565.28
2023-01-17T21:59:25.676Z,97564.53
2023-01-17T22:01:52.826Z,97536.06
2023-01-17T22:04:20.171Z,97576.81
2023-01-17T22:06:47.166Z,97568.72
2023-01-17T22:09:15.244Z,97584.41
2023-01-17T22:11:42.218Z,97573.50
2023-01-17T22:14:09.184Z,97560.06
2023-01-17T22:16:36.526Z,97593.50
2023-01-17T22:19:03.394Z,97536.13
2023-01-17T22:21:30.395Z,97553.63
2023-01-17T22:23:59.065Z,97534.34
2023-01-17T22:26:29.190Z,97578.25
2023-01-17T22:28:59.465Z,97602.00
2023-01-17T22:31:28.463Z,97592.06
2023-01-17T22:34:01.115Z,97576.41
2023-01-17T22:36:32.342Z,97577.22
2023-01-17T22:38:59.656Z,97604.09
2023-01-17T22:41:33.901Z,97603.94
2023-01-17T22:44:02.517Z,97467.94
2023-01-17T22:46:32.170Z,97608.97
2023-01-17T22:48:59.817Z,97606.88
2023-01-17T22:51:28.548Z,97589.75
2023-01-17T22:53:57.915Z,97594.38
2023-01-17T22:56:27.573Z,97604.91
2023-01-17T22:58:54.619Z,97614.16
2023-01-17T23:01:24.349Z,97584.34
2023-01-17T23:03:55.551Z,97581.94
2023-01-17T23:06:25.744Z,97612.38
2023-01-17T23:08:55.076Z,97580.50
2023-01-17T23:11:42.632Z,97578.50
2023-01-17T23:14:11.806Z,97579.16
2023-01-17T23:16:58.871Z,97560.28
2023-01-17T23:19:28.157Z,97605.78
2023-01-17T23:22:16.380Z,97598.34
2023-01-17T23:24:57.449Z,97605.34
2023-01-17T23:28:04.485Z,97605.66
2023-01-17T23:30:36.988Z,97592.19
2023-01-17T23:33:06.632Z,97603.63
2023-01-17T23:35:41.651Z,97601.63
2023-01-17T23:38:33.887Z,97606.41
2023-01-17T23:41:22.022Z,97521.81
2023-01-17T23:43:56.927Z,97522.84
2023-01-17T23:46:25.700Z,97563.31
2023-01-17T23:48:52.762Z,97582.31
2023-01-17T23:51:19.770Z,97508.06
2023-01-17T23:53:46.668Z,97582.78
2023-01-17T23:56:22.568Z,97597.84
2023-01-17T23:58:49.440Z,97555.44
